createdAt,value
2022-12-11T00:02:06.953Z,76.68
2022-12-11T00:05:13.247Z,77.09
2022-12-11T00:08:19.345Z,77.26
2022-12-11T00:11:27.011Z,77.95
2022-12-11T00:14:31.908Z,79.61
2022-12-11T00:17:38.349Z,79.09
2022-12-11T00:20:44.142Z,78.37
2022-12-11T00:23:50.612Z,77.56
2022-12-11T00:26:57.292Z,77.67
2022-12-11T00:30:04.085Z,77.91
2022-12-11T00:33:10.810Z,77.88
2022-12-11T00:36:17.324Z,77.98
2022-12-11T00:39:22.788Z,77.65
2022-12-11T00:42:21.885Z,77.39
2022-12-11T00:45:22.018Z,77.92
2022-12-11T00:48:28.785Z,77.36
2022-12-11T00:51:34.520Z,77.39
2022-12-11T00:54:40.213Z,77.95
2022-12-11T00:57:46.383Z,78.10
2022-12-11T01:00:52.399Z,77.99
2022-12-11T01:03:59.045Z,77.87
2022-12-11T01:07:05.458Z,78.59
2022-12-11T01:10:29.096Z,79.32
2022-12-11T01:13:36.111Z,78.78
2022-12-11T01:16:41.078Z,79.42
2022-12-11T01:19:46.866Z,78.47
2022-12-11T01:22:53.285Z,79.71
2022-12-11T01:25:59.146Z,81.63
2022-12-11T01:29:05.785Z,80.53
2022-12-11T01:32:12.497Z,79.44
2022-12-11T01:35:21.959Z,79.79
2022-12-11T01:38:27.305Z,80.88
2022-12-11T01:41:33.214Z,79.60
2022-12-11T01:44:43.765Z,79.64
2022-12-11T01:47:49.737Z,79.77
2022-12-11T01:51:11.580Z,79.67
2022-12-11T01:54:21.043Z,80.55
2022-12-11T01:57:27.243Z,79.83
2022-12-11T02:00:33.771Z,78.65
2022-12-11T02:03:39.634Z,78.26
2022-12-11T02:06:53.482Z,78.42
2022-12-11T02:10:00.042Z,79.11
2022-12-11T02:13:24.405Z,79.22
2022-12-11T02:16:38.273Z,80.15
2022-12-11T02:20:15.702Z,79.92
2022-12-11T02:23:41.540Z,79.68
2022-12-11T02:27:06.879Z,80.60
2022-12-11T02:30:20.826Z,79.49
2022-12-11T02:33:26.694Z,79.36
2022-12-11T02:36:32.057Z,79.86
2022-12-11T02:39:37.472Z,78.54
2022-12-11T02:42:45.351Z,78.50
2022-12-11T02:45:51.189Z,77.23
2022-12-11T02:48:57.795Z,76.57
2022-12-11T02:52:03.636Z,77.83
2022-12-11T02:55:10.722Z,76.51
2022-12-11T02:58:24.463Z,77.38
2022-12-11T03:01:31.740Z,77.98
2022-12-11T03:04:37.113Z,77.64
2022-12-11T03:07:47.985Z,78.06
2022-12-11T03:10:54.240Z,78.93
2022-12-11T03:14:00.810Z,78.00
2022-12-11T03:17:33.749Z,76.87
2022-12-11T03:21:04.640Z,76.05
2022-12-11T03:24:39.634Z,77.05
2022-12-11T03:28:06.082Z,77.43
2022-12-11T03:31:12.206Z,76.81
2022-12-11T03:34:14.282Z,77.60
2022-12-11T03:37:19.922Z,78.69
2022-12-11T03:40:28.731Z,80.48
2022-12-11T03:43:33.438Z,80.69
2022-12-11T03:46:44.962Z,79.62
2022-12-11T03:49:56.474Z,79.54
2022-12-11T03:53:03.167Z,79.29
2022-12-11T03:56:10.669Z,79.57
2022-12-11T03:59:09.677Z,79.09
2022-12-11T04:02:17.830Z,79.06
2022-12-11T04:05:23.912Z,78.15
2022-12-11T04:08:31.514Z,77.89
2022-12-11T04:11:43.121Z,78.75
2022-12-11T04:15:08.703Z,79.24
2022-12-11T04:18:34.709Z,79.88
2022-12-11T04:21:57.283Z,79.07
2022-12-11T04:25:04.412Z,79.18
2022-12-11T04:28:09.510Z,78.89
2022-12-11T04:31:15.449Z,79.66
2022-12-11T04:34:20.912Z,78.38
2022-12-11T04:37:27.559Z,78.66
2022-12-11T04:40:32.971Z,77.46
2022-12-11T04:43:38.579Z,77.79
2022-12-11T04:46:44.637Z,77.56
2022-12-11T04:49:44.306Z,78.02
2022-12-11T04:52:50.360Z,78.14
2022-12-11T04:55:56.199Z,76.95
2022-12-11T04:59:02.708Z,77.80
2022-12-11T05:02:09.870Z,76.58
2022-12-11T05:05:18.023Z,77.39
2022-12-11T05:08:23.737Z,76.91
2022-12-11T05:11:29.438Z,77.68
2022-12-11T05:14:34.279Z,76.95
2022-12-11T05:17:40.192Z,77.28
2022-12-11T05:20:46.321Z,77.97
2022-12-11T05:23:52.180Z,77.08
2022-12-11T05:26:57.989Z,77.68
2022-12-11T05:30:04.766Z,76.77
2022-12-11T05:33:11.515Z,77.42
2022-12-11T05:36:17.269Z,76.26
2022-12-11T05:39:23.639Z,76.22
2022-12-11T05:42:29.395Z,76.43
2022-12-11T05:45:35.248Z,75.77
2022-12-11T05:48:41.484Z,77.42
2022-12-11T05:51:50.083Z,77.24
2022-12-11T05:54:56.473Z,77.59
2022-12-11T05:58:03.304Z,76.79
2022-12-11T06:01:09.390Z,77.08
2022-12-11T06:04:17.350Z,77.48
2022-12-11T06:07:25.410Z,76.67
2022-12-11T06:10:30.970Z,76.41
2022-12-11T06:13:36.483Z,76.61
2022-12-11T06:16:41.983Z,76.83
2022-12-11T06:19:48.159Z,75.74
2022-12-11T06:22:54.097Z,76.18
2022-12-11T06:25:59.339Z,74.94
2022-12-11T06:29:08.984Z,74.63
2022-12-11T06:32:11.800Z,74.79
2022-12-11T06:35:16.560Z,75.28
2022-12-11T06:38:21.973Z,75.11
2022-12-11T06:41:27.018Z,75.49
2022-12-11T06:44:32.776Z,75.82
2022-12-11T06:47:41.459Z,76.03
2022-12-11T06:50:47.107Z,75.47
2022-12-11T06:53:52.622Z,74.64
2022-12-11T06:56:58.429Z,75.24
2022-12-11T07:00:03.488Z,75.13
2022-12-11T07:03:09.580Z,75.51
2022-12-11T07:06:10.367Z,75.95
2022-12-11T07:09:22.160Z,76.42
2022-12-11T07:12:27.760Z,78.03
2022-12-11T07:15:37.713Z,77.79
2022-12-11T07:18:42.335Z,78.71
2022-12-11T07:21:48.261Z,76.70
2022-12-11T07:24:54.378Z,77.27
2022-12-11T07:27:59.313Z,77.07
2022-12-11T07:31:05.547Z,75.85
2022-12-11T07:34:17.026Z,75.87
2022-12-11T07:37:22.409Z,76.67
2022-12-11T07:40:29.758Z,76.84
2022-12-11T07:43:34.794Z,76.56
2022-12-11T07:46:43.677Z,76.32
2022-12-11T07:49:49.612Z,76.10
2022-12-11T07:52:55.452Z,76.75
2022-12-11T07:56:04.245Z,77.70
2022-12-11T07:59:08.768Z,77.61
2022-12-11T08:02:15.079Z,77.79
2022-12-11T08:05:21.438Z,77.43
2022-12-11T08:08:20.362Z,76.90
2022-12-11T08:11:27.678Z,76.57
2022-12-11T08:14:33.190Z,76.22
2022-12-11T08:17:40.184Z,77.89
2022-12-11T08:20:45.928Z,77.40
2022-12-11T08:23:52.516Z,77.89
2022-12-11T08:26:58.665Z,77.84
2022-12-11T08:30:06.085Z,76.64
2022-12-11T08:33:12.457Z,76.08
2022-12-11T08:36:20.588Z,75.92
2022-12-11T08:39:26.905Z,75.52
2022-12-11T08:42:33.337Z,74.62
2022-12-11T08:45:40.141Z,74.65
2022-12-11T08:48:45.485Z,75.90
2022-12-11T08:51:50.971Z,75.48
2022-12-11T08:54:57.008Z,74.46
2022-12-11T08:58:03.151Z,74.25
2022-12-11T09:01:09.958Z,74.89
2022-12-11T09:04:15.535Z,74.63
2022-12-11T09:07:22.073Z,75.15
2022-12-11T09:10:28.059Z,75.27
2022-12-11T09:13:34.714Z,75.87
2022-12-11T09:16:42.802Z,75.04
2022-12-11T09:19:48.684Z,74.88
2022-12-11T09:22:48.302Z,74.14
2022-12-11T09:25:56.363Z,72.72
2022-12-11T09:29:02.570Z,73.10
2022-12-11T09:32:08.801Z,72.62
2022-12-11T09:35:14.581Z,72.32
2022-12-11T09:38:21.609Z,72.84
2022-12-11T09:41:55.183Z,72.82
2022-12-11T09:45:09.371Z,73.60
2022-12-11T09:48:08.487Z,73.33
2022-12-11T09:51:14.224Z,72.95
2022-12-11T09:54:20.658Z,71.98
2022-12-11T09:57:42.946Z,72.09
2022-12-11T10:01:02.168Z,71.01
2022-12-11T10:04:22.443Z,71.61
2022-12-11T10:07:42.403Z,71.31
2022-12-11T10:11:21.253Z,70.75
2022-12-11T10:15:12.432Z,70.95
2022-12-11T10:18:22.064Z,69.89
2022-12-11T10:21:28.415Z,69.61
2022-12-11T10:27:51.100Z,69.52
2022-12-11T10:31:08.347Z,70.16
2022-12-11T10:34:27.068Z,69.94
2022-12-11T10:37:32.548Z,70.52
2022-12-11T10:40:40.052Z,70.52
2022-12-11T10:43:54.761Z,71.06
2022-12-11T10:47:00.834Z,70.73
2022-12-11T10:50:14.676Z,71.01
2022-12-11T10:53:20.186Z,69.57
2022-12-11T10:56:24.696Z,69.52
2022-12-11T10:59:47.410Z,70.44
2022-12-11T11:03:09.662Z,70.37
2022-12-11T11:06:30.746Z,70.58
2022-12-11T11:09:48.788Z,70.54
2022-12-11T11:13:00.106Z,69.81
2022-12-11T11:16:21.449Z,69.41
2022-12-11T11:19:40.974Z,70.00
2022-12-11T11:22:28.234Z,69.12
2022-12-11T11:25:31.174Z,69.17
2022-12-11T11:28:27.749Z,69.78
2022-12-11T11:31:33.035Z,69.68
2022-12-11T11:34:38.242Z,68.87
2022-12-11T11:37:47.997Z,68.89
2022-12-11T11:41:14.760Z,68.89
2022-12-11T11:44:12.758Z,68.77
2022-12-11T11:47:23.184Z,68.56
2022-12-11T11:50:37.010Z,68.43
2022-12-11T11:53:49.498Z,68.69
2022-12-11T11:56:55.779Z,67.87
2022-12-11T12:00:10.003Z,68.64
2022-12-11T12:03:17.893Z,68.36
2022-12-11T12:06:59.615Z,67.98
2022-12-11T12:10:33.469Z,67.52
2022-12-11T12:14:50.507Z,67.33
2022-12-11T12:17:36.381Z,68.03
2022-12-11T12:21:10.755Z,69.48
2022-12-11T12:24:40.183Z,69.47
2022-12-11T12:28:07.151Z,69.46
2022-12-11T12:31:27.095Z,68.93
2022-12-11T12:34:51.062Z,68.55
2022-12-11T12:38:20.400Z,68.51
2022-12-11T12:42:05.640Z,68.29
2022-12-11T12:45:27.392Z,69.31
2022-12-11T12:48:34.201Z,69.76
2022-12-11T12:51:33.318Z,69.65
2022-12-11T12:54:30.187Z,69.29
2022-12-11T12:57:35.981Z,69.57
2022-12-11T13:00:56.480Z,69.69
2022-12-11T13:04:39.590Z,69.64
2022-12-11T13:07:40.146Z,68.92
2022-12-11T13:10:52.058Z,70.77
2022-12-11T13:14:02.678Z,71.46
2022-12-11T13:17:09.541Z,70.95
2022-12-11T13:20:31.174Z,71.06
2022-12-11T13:23:47.966Z,72.17
2022-12-11T13:26:54.619Z,72.00
2022-12-11T13:30:01.061Z,71.55
2022-12-11T13:33:23.324Z,71.81
2022-12-11T13:36:35.038Z,71.69
2022-12-11T13:39:52.109Z,71.68
2022-12-11T13:43:16.106Z,71.02
2022-12-11T13:46:24.442Z,70.54
2022-12-11T13:49:44.033Z,70.41
2022-12-11T13:52:50.653Z,70.17
2022-12-11T13:55:56.389Z,70.40
2022-12-11T13:59:03.490Z,69.52
2022-12-11T14:02:13.340Z,69.38
2022-12-11T14:05:22.632Z,69.75
2022-12-11T14:08:31.474Z,69.40
2022-12-11T14:11:41.939Z,70.24
2022-12-11T14:14:58.566Z,69.39
2022-12-11T14:18:04.046Z,69.21
2022-12-11T14:21:14.753Z,68.66
2022-12-11T14:24:22.888Z,69.21
2022-12-11T14:27:31.316Z,68.68
2022-12-11T14:30:44.053Z,68.67
2022-12-11T14:33:55.620Z,69.10
2022-12-11T14:37:02.141Z,69.64
2022-12-11T14:40:27.324Z,69.83
2022-12-11T14:43:40.688Z,70.21
2022-12-11T14:47:01.458Z,69.72
2022-12-11T14:50:44.193Z,69.39
2022-12-11T14:53:52.678Z,68.32
2022-12-11T14:56:59.108Z,70.07
2022-12-11T15:00:06.231Z,69.11
2022-12-11T15:03:28.303Z,70.46
2022-12-11T15:06:44.461Z,69.31
2022-12-11T15:09:53.274Z,69.85
2022-12-11T15:13:00.900Z,69.53
2022-12-11T15:16:07.762Z,71.04
2022-12-11T15:19:12.965Z,70.68
2022-12-11T15:22:23.440Z,71.37
2022-12-11T15:25:40.480Z,71.71
2022-12-11T15:28:50.435Z,72.61
2022-12-11T15:31:50.864Z,73.53
2022-12-11T15:35:05.846Z,74.12
2022-12-11T15:38:12.471Z,74.60
2022-12-11T15:41:17.536Z,75.78
2022-12-11T15:44:25.858Z,76.30
2022-12-11T15:47:32.982Z,76.72
2022-12-11T15:50:45.161Z,76.13
2022-12-11T15:53:51.736Z,75.35
2022-12-11T15:56:57.660Z,76.12
2022-12-11T16:00:04.512Z,76.43
2022-12-11T16:03:10.357Z,77.96
2022-12-11T16:06:17.293Z,77.91
2022-12-11T16:09:23.903Z,76.57
2022-12-11T16:12:30.271Z,75.45
2022-12-11T16:15:35.942Z,77.65
2022-12-11T16:18:41.520Z,78.04
2022-12-11T16:21:46.771Z,79.08
2022-12-11T16:24:53.414Z,77.76
2022-12-11T16:27:59.146Z,78.13
2022-12-11T16:31:05.331Z,78.09
2022-12-11T16:34:11.161Z,77.64
2022-12-11T16:37:19.737Z,77.54
2022-12-11T16:40:26.145Z,77.92
2022-12-11T16:43:31.993Z,77.51
2022-12-11T16:46:37.829Z,77.21
2022-12-11T16:49:43.921Z,77.52
2022-12-11T16:52:49.546Z,77.62
2022-12-11T16:55:55.182Z,77.69
2022-12-11T16:59:14.215Z,78.29
2022-12-11T17:02:20.993Z,78.83
2022-12-11T17:05:27.906Z,79.34
2022-12-11T17:08:33.649Z,79.46
2022-12-11T17:11:39.044Z,79.63
2022-12-11T17:14:44.658Z,80.00
2022-12-11T17:17:53.356Z,79.92
2022-12-11T17:20:59.342Z,79.71
2022-12-11T17:24:06.412Z,79.78
2022-12-11T17:27:11.621Z,81.31
2022-12-11T17:30:17.698Z,80.51
2022-12-11T17:33:24.581Z,79.44
2022-12-11T17:36:34.258Z,78.46
2022-12-11T17:39:40.246Z,79.53
2022-12-11T17:42:45.832Z,79.80
2022-12-11T17:45:59.943Z,80.59
2022-12-11T17:49:07.222Z,80.90
2022-12-11T17:52:12.497Z,81.50
2022-12-11T17:55:19.606Z,80.22
2022-12-11T17:58:28.748Z,80.26
2022-12-11T18:01:35.056Z,80.30
2022-12-11T18:04:40.830Z,79.29
2022-12-11T18:07:57.444Z,79.02
2022-12-11T18:10:59.711Z,78.74
2022-12-11T18:14:06.458Z,78.09
2022-12-11T18:17:13.048Z,78.55
2022-12-11T18:20:18.613Z,78.36
2022-12-11T18:23:25.489Z,77.52
2022-12-11T18:26:33.269Z,78.24
2022-12-11T18:29:39.274Z,78.17
2022-12-11T18:32:45.402Z,78.96
2022-12-11T18:35:50.726Z,79.68
2022-12-11T18:38:57.769Z,79.86
2022-12-11T18:42:31.552Z,79.21
2022-12-11T18:45:11.413Z,78.78
2022-12-11T18:48:16.580Z,77.81
2022-12-11T18:51:17.885Z,77.71
2022-12-11T18:54:24.088Z,79.21
2022-12-11T18:57:23.095Z,78.79
2022-12-11T22:16:38.984Z,79.50
2022-12-11T22:19:46.107Z,78.09
2022-12-11T22:22:51.748Z,76.90
2022-12-11T22:25:57.464Z,76.71
2022-12-11T22:29:02.654Z,75.84
2022-12-11T22:32:07.563Z,76.85
2022-12-11T22:35:15.538Z,76.67
2022-12-11T22:38:20.887Z,74.81
2022-12-11T22:41:38.979Z,75.59
2022-12-11T22:44:44.654Z,73.47
2022-12-11T22:47:50.452Z,75.51
2022-12-11T22:50:56.227Z,74.65
2022-12-11T22:54:01.525Z,74.11
2022-12-11T22:57:07.293Z,73.26
2022-12-11T23:00:12.277Z,74.46
2022-12-11T23:03:16.962Z,76.10
2022-12-11T23:06:22.149Z,76.87
2022-12-11T23:09:21.130Z,75.24
2022-12-11T23:12:20.130Z,74.70
2022-12-11T23:15:25.648Z,74.52
2022-12-11T23:18:31.069Z,75.02
2022-12-11T23:21:37.942Z,74.30
2022-12-11T23:24:43.478Z,74.48
2022-12-11T23:27:49.029Z,74.09
2022-12-11T23:30:55.596Z,73.47
2022-12-11T23:34:01.591Z,71.87
2022-12-11T23:37:07.915Z,72.06
2022-12-11T23:40:13.776Z,71.33
2022-12-11T23:43:20.277Z,70.78
2022-12-11T23:46:30.015Z,69.59
2022-12-11T23:49:34.198Z,70.75
2022-12-11T23:52:40.461Z,71.52
2022-12-11T23:55:40.635Z,72.35
2022-12-11T23:58:49.195Z,73.29
